Terminal Aerodrome Forecast
Issued by NWS Kansas City/Pleasant Hill, MO

Home | Current Version | Previous Version | Text Only | Print | Product List | Glossary On
Versions: 1 2 3 4 5 6 7 8 9 10 11 12 13 14 15 16
000
FTUS43 KEAX 301729
TAFMCI
TAF
KMCI 301729Z 3018/3118 17008KT P6SM BKN250
     FM302000 17010KT P6SM VCTS BKN050CB
     FM310100 18006KT P6SM BKN200=

USA.gov is the U.S. government's official web portal to all federal, state and local government web resources and services.